sensor_id;sensor_type;location;lat;lon;timestamp;pressure;altitude;pressure_sealevel;temperature;humidity
71457;BME280;59263;48.160;11.752;2023-08-24T00:01:03;96129.13;;;22.20;100.00
71457;BME280;59263;48.160;11.752;2023-08-24T00:03:28;96138.06;;;22.19;100.00
71457;BME280;59263;48.160;11.752;2023-08-24T00:05:54;96132.78;;;22.19;100.00
71457;BME280;59263;48.160;11.752;2023-08-24T00:08:19;96128.97;;;22.15;100.00
71457;BME280;59263;48.160;11.752;2023-08-24T00:10:45;96130.56;;;22.16;100.00
71457;BME280;59263;48.160;11.752;2023-08-24T00:13:13;96128.97;;;22.15;100.00
71457;BME280;59263;48.160;11.752;2023-08-24T00:15:39;96123.44;;;22.23;100.00
71457;BME280;59263;48.160;11.752;2023-08-24T00:18:05;96119.38;;;22.27;100.00
71457;BME280;59263;48.160;11.752;2023-08-24T00:20:30;96121.59;;;22.30;100.00
71457;BME280;59263;48.160;11.752;2023-08-24T00:22:58;96119.78;;;22.24;100.00
71457;BME280;59263;48.160;11.752;2023-08-24T00:25:23;96120.41;;;22.26;100.00
71457;BME280;59263;48.160;11.752;2023-08-24T00:27:49;96119.41;;;22.20;100.00
71457;BME280;59263;48.160;11.752;2023-08-24T00:30:15;96123.28;;;22.18;100.00
71457;BME280;59263;48.160;11.752;2023-08-24T00:32:40;96116.97;;;22.06;100.00
71457;BME280;59263;48.160;11.752;2023-08-24T00:35:07;96127.91;;;22.09;100.00
71457;BME280;59263;48.160;11.752;2023-08-24T00:37:33;96132.38;;;22.09;100.00
71457;BME280;59263;48.160;11.752;2023-08-24T00:40:04;96134.84;;;22.04;100.00
71457;BME280;59263;48.160;11.752;2023-08-24T00:42:33;96124.94;;;21.99;100.00
71457;BME280;59263;48.160;11.752;2023-08-24T00:44:58;96125.53;;;22.14;100.00
71457;BME280;59263;48.160;11.752;2023-08-24T00:47:24;96119.03;;;22.10;100.00
71457;BME280;59263;48.160;11.752;2023-08-24T00:49:50;96119.00;;;22.17;100.00
71457;BME280;59263;48.160;11.752;2023-08-24T00:52:16;96113.31;;;22.13;100.00
71457;BME280;59263;48.160;11.752;2023-08-24T00:54:41;96127.13;;;22.09;100.00
71457;BME280;59263;48.160;11.752;2023-08-24T00:57:07;96127.53;;;22.06;100.00
71457;BME280;59263;48.160;11.752;2023-08-24T00:59:33;96136.06;;;21.94;100.00
71457;BME280;59263;48.160;11.752;2023-08-24T01:01:59;96137.72;;;21.95;100.00
71457;BME280;59263;48.160;11.752;2023-08-24T01:04:25;96141.56;;;21.93;100.00
71457;BME280;59263;48.160;11.752;2023-08-24T01:06:51;96142.13;;;22.02;100.00
71457;BME280;59263;48.160;11.752;2023-08-24T01:09:18;96130.78;;;21.94;100.00
71457;BME280;59263;48.160;11.752;2023-08-24T01:17:09;96136.91;;;21.82;100.00
71457;BME280;59263;48.160;11.752;2023-08-24T01:19:44;96129.03;;;21.75;100.00
71457;BME280;59263;48.160;11.752;2023-08-24T01:25:05;96131.66;;;21.68;100.00
71457;BME280;59263;48.160;11.752;2023-08-24T01:27:33;96129.88;;;21.62;100.00
71457;BME280;59263;48.160;11.752;2023-08-24T01:30:03;96122.38;;;21.53;100.00
71457;BME280;59263;48.160;11.752;2023-08-24T01:32:32;96133.31;;;21.63;100.00
71457;BME280;59263;48.160;11.752;2023-08-24T01:34:59;96131.47;;;21.50;100.00
71457;BME280;59263;48.160;11.752;2023-08-24T01:37:25;96134.91;;;21.50;100.00
71457;BME280;59263;48.160;11.752;2023-08-24T01:42:35;96141.00;;;21.44;100.00
71457;BME280;59263;48.160;11.752;2023-08-24T01:45:05;96148.69;;;21.33;100.00
71457;BME280;59263;48.160;11.752;2023-08-24T01:47:33;96148.66;;;21.26;100.00
71457;BME280;59263;48.160;11.752;2023-08-24T01:50:01;96155.94;;;21.24;100.00
71457;BME280;59263;48.160;11.752;2023-08-24T01:52:27;96141.97;;;21.23;100.00
71457;BME280;59263;48.160;11.752;2023-08-24T01:54:53;96136.09;;;21.28;100.00
71457;BME280;59263;48.160;11.752;2023-08-24T01:57:18;96138.59;;;21.36;100.00
71457;BME280;59263;48.160;11.752;2023-08-24T01:59:43;96137.34;;;21.25;100.00
71457;BME280;59263;48.160;11.752;2023-08-24T02:02:08;96108.97;;;21.08;100.00
71457;BME280;59263;48.160;11.752;2023-08-24T02:04:34;96131.25;;;21.25;100.00
71457;BME280;59263;48.160;11.752;2023-08-24T02:06:59;96129.66;;;21.17;100.00
71457;BME280;59263;48.160;11.752;2023-08-24T02:09:25;96129.66;;;21.17;100.00
71457;BME280;59263;48.160;11.752;2023-08-24T02:11:50;96123.16;;;21.20;100.00
71457;BME280;59263;48.160;11.752;2023-08-24T02:14:16;96122.31;;;21.13;100.00
71457;BME280;59263;48.160;11.752;2023-08-24T02:16:41;96123.97;;;21.14;100.00
71457;BME280;59263;48.160;11.752;2023-08-24T02:19:06;96125.94;;;20.98;100.00
71457;BME280;59263;48.160;11.752;2023-08-24T02:21:31;96129.41;;;20.92;100.00
71457;BME280;59263;48.160;11.752;2023-08-24T02:23:57;96126.38;;;20.95;100.00
71457;BME280;59263;48.160;11.752;2023-08-24T02:26:22;96119.91;;;20.91;100.00
71457;BME280;59263;48.160;11.752;2023-08-24T02:28:47;96109.34;;;20.78;100.00
71457;BME280;59263;48.160;11.752;2023-08-24T02:31:14;96121.50;;;20.86;100.00
71457;BME280;59263;48.160;11.752;2023-08-24T02:33:41;96124.50;;;20.76;100.00
71457;BME280;59263;48.160;11.752;2023-08-24T02:36:07;96123.06;;;20.67;100.00
71457;BME280;59263;48.160;11.752;2023-08-24T02:38:32;96123.25;;;20.65;100.00
71457;BME280;59263;48.160;11.752;2023-08-24T02:41:05;96115.63;;;20.77;100.00
71457;BME280;59263;48.160;11.752;2023-08-24T02:43:32;96119.44;;;20.68;100.00
71457;BME280;59263;48.160;11.752;2023-08-24T02:46:01;96110.94;;;20.79;100.00
71457;BME280;59263;48.160;11.752;2023-08-24T02:48:28;96118.03;;;20.78;100.00
71457;BME280;59263;48.160;11.752;2023-08-24T02:50:53;96116.41;;;20.71;100.00
71457;BME280;59263;48.160;11.752;2023-08-24T02:53:19;96112.94;;;20.64;100.00
71457;BME280;59263;48.160;11.752;2023-08-24T02:55:44;96107.28;;;20.67;100.00
71457;BME280;59263;48.160;11.752;2023-08-24T02:58:09;96105.88;;;20.71;100.00
71457;BME280;59263;48.160;11.752;2023-08-24T03:00:38;96100.00;;;20.69;100.00
71457;BME280;59263;48.160;11.752;2023-08-24T03:03:03;96098.16;;;20.56;100.00
71457;BME280;59263;48.160;11.752;2023-08-24T03:05:31;96095.13;;;20.52;100.00
71457;BME280;59263;48.160;11.752;2023-08-24T03:07:56;96100.38;;;20.52;100.00
71457;BME280;59263;48.160;11.752;2023-08-24T03:10:21;96096.72;;;20.53;100.00
71457;BME280;59263;48.160;11.752;2023-08-24T03:12:46;96088.66;;;20.55;100.00
71457;BME280;59263;48.160;11.752;2023-08-24T03:15:12;96090.28;;;20.56;100.00
71457;BME280;59263;48.160;11.752;2023-08-24T03:17:37;96087.84;;;20.54;100.00
71457;BME280;59263;48.160;11.752;2023-08-24T03:20:03;96084.22;;;20.56;100.00
71457;BME280;59263;48.160;11.752;2023-08-24T03:22:28;96080.53;;;20.50;100.00
71457;BME280;59263;48.160;11.752;2023-08-24T03:24:54;96085.63;;;20.51;100.00
71457;BME280;59263;48.160;11.752;2023-08-24T03:27:19;96074.03;;;20.46;100.00
71457;BME280;59263;48.160;11.752;2023-08-24T03:29:44;96077.09;;;20.49;100.00
71457;BME280;59263;48.160;11.752;2023-08-24T03:32:10;96078.91;;;20.49;100.00
71457;BME280;59263;48.160;11.752;2023-08-24T03:34:35;96076.47;;;20.47;100.00
71457;BME280;59263;48.160;11.752;2023-08-24T03:37:01;96068.38;;;20.49;100.00
71457;BME280;59263;48.160;11.752;2023-08-24T03:39:26;96052.97;;;20.39;100.00
71457;BME280;59263;48.160;11.752;2023-08-24T03:41:51;96052.97;;;20.39;100.00
71457;BME280;59263;48.160;11.752;2023-08-24T03:44:17;96061.06;;;20.38;100.00
71457;BME280;59263;48.160;11.752;2023-08-24T03:46:42;96076.63;;;20.39;100.00
71457;BME280;59263;48.160;11.752;2023-08-24T03:49:07;96074.84;;;20.40;100.00
71457;BME280;59263;48.160;11.752;2023-08-24T03:51:33;96067.13;;;20.38;100.00
71457;BME280;59263;48.160;11.752;2023-08-24T03:53:58;96062.28;;;20.35;100.00
71457;BME280;59263;48.160;11.752;2023-08-24T03:56:23;96071.56;;;20.31;100.00
71457;BME280;59263;48.160;11.752;2023-08-24T03:58:48;96068.53;;;20.27;100.00
71457;BME280;59263;48.160;11.752;2023-08-24T04:01:14;96071.34;;;20.26;100.00
71457;BME280;59263;48.160;11.752;2023-08-24T04:03:40;96069.13;;;20.23;100.00
71457;BME280;59263;48.160;11.752;2023-08-24T04:06:05;96077.59;;;20.18;100.00
71457;BME280;59263;48.160;11.752;2023-08-24T04:08:31;96081.22;;;20.11;100.00
71457;BME280;59263;48.160;11.752;2023-08-24T04:10:56;96081.59;;;20.08;100.00
71457;BME280;59263;48.160;11.752;2023-08-24T04:13:21;96073.09;;;20.05;100.00
71457;BME280;59263;48.160;11.752;2023-08-24T04:15:47;96075.56;;;20.14;100.00
71457;BME280;59263;48.160;11.752;2023-08-24T04:18:12;96082.00;;;20.11;100.00
71457;BME280;59263;48.160;11.752;2023-08-24T04:20:37;96088.47;;;20.09;100.00
71457;BME280;59263;48.160;11.752;2023-08-24T04:23:03;96085.38;;;19.98;100.00
71457;BME280;59263;48.160;11.752;2023-08-24T04:25:28;96084.78;;;19.96;100.00
71457;BME280;59263;48.160;11.752;2023-08-24T04:27:54;96085.53;;;19.90;100.00
71457;BME280;59263;48.160;11.752;2023-08-24T04:30:20;96090.03;;;19.96;100.00
71457;BME280;59263;48.160;11.752;2023-08-24T04:32:46;96090.41;;;19.93;100.00
71457;BME280;59263;48.160;11.752;2023-08-24T04:35:12;96097.69;;;19.91;100.00
71457;BME280;59263;48.160;11.752;2023-08-24T04:37:37;96088.00;;;19.92;100.00
71457;BME280;59263;48.160;11.752;2023-08-24T04:40:03;96095.09;;;19.98;100.00
71457;BME280;59263;48.160;11.752;2023-08-24T04:42:29;96098.31;;;19.93;100.00
71457;BME280;59263;48.160;11.752;2023-08-24T04:44:55;96086.56;;;19.89;100.00
71457;BME280;59263;48.160;11.752;2023-08-24T04:47:20;96093.81;;;19.87;100.00
71457;BME280;59263;48.160;11.752;2023-08-24T04:49:45;96085.94;;;19.87;100.00
71457;BME280;59263;48.160;11.752;2023-08-24T04:52:10;96093.69;;;19.95;100.00
71457;BME280;59263;48.160;11.752;2023-08-24T04:54:36;96101.00;;;20.06;100.00
71457;BME280;59263;48.160;11.752;2023-08-24T04:57:02;96095.75;;;20.06;100.00
71457;BME280;59263;48.160;11.752;2023-08-24T04:59:27;96100.19;;;20.06;100.00
71457;BME280;59263;48.160;11.752;2023-08-24T05:01:52;96090.06;;;20.10;100.00
71457;BME280;59263;48.160;11.752;2023-08-24T05:04:18;96091.91;;;20.09;100.00
71457;BME280;59263;48.160;11.752;2023-08-24T05:06:43;96087.88;;;20.06;100.00
71457;BME280;59263;48.160;11.752;2023-08-24T05:09:08;96090.50;;;20.06;100.00
71457;BME280;59263;48.160;11.752;2023-08-24T05:11:34;96086.44;;;20.04;100.00
71457;BME280;59263;48.160;11.752;2023-08-24T05:13:59;96063.38;;;19.99;100.00
71457;BME280;59263;48.160;11.752;2023-08-24T05:16:24;96080.41;;;20.17;100.00
71457;BME280;59263;48.160;11.752;2023-08-24T05:18:50;96079.63;;;20.23;100.00
71457;BME280;59263;48.160;11.752;2023-08-24T05:21:15;96077.44;;;20.33;100.00
71457;BME280;59263;48.160;11.752;2023-08-24T05:23:41;96065.72;;;20.29;100.00
71457;BME280;59263;48.160;11.752;2023-08-24T05:26:06;96075.44;;;20.42;100.00
71457;BME280;59263;48.160;11.752;2023-08-24T05:28:32;96074.25;;;20.44;100.00
71457;BME280;59263;48.160;11.752;2023-08-24T05:30:58;96076.91;;;20.58;100.00
71457;BME280;59263;48.160;11.752;2023-08-24T05:33:24;96083.81;;;20.65;100.00
71457;BME280;59263;48.160;11.752;2023-08-24T05:35:51;96079.38;;;20.79;100.00
71457;BME280;59263;48.160;11.752;2023-08-24T05:38:17;96070.88;;;20.84;100.00
71457;BME280;59263;48.160;11.752;2023-08-24T05:40:43;96078.78;;;20.90;100.00
71457;BME280;59263;48.160;11.752;2023-08-24T05:43:11;96077.19;;;20.89;100.00
71457;BME280;59263;48.160;11.752;2023-08-24T05:45:36;96078.81;;;20.97;100.00
71457;BME280;59263;48.160;11.752;2023-08-24T05:48:02;96089.13;;;20.98;100.00
71457;BME280;59263;48.160;11.752;2023-08-24T05:50:27;96083.06;;;21.05;100.00
71457;BME280;59263;48.160;11.752;2023-08-24T05:52:52;96085.69;;;21.18;100.00
71457;BME280;59263;48.160;11.752;2023-08-24T05:55:18;96079.00;;;21.15;100.00
71457;BME280;59263;48.160;11.752;2023-08-24T05:57:43;96092.38;;;21.27;100.00
71457;BME280;59263;48.160;11.752;2023-08-24T06:00:09;96088.56;;;21.36;100.00
71457;BME280;59263;48.160;11.752;2023-08-24T06:02:37;96077.78;;;21.31;100.00
71457;BME280;59263;48.160;11.752;2023-08-24T06:05:03;96092.81;;;21.44;100.00
71457;BME280;59263;48.160;11.752;2023-08-24T06:07:29;96087.91;;;21.54;100.00
71457;BME280;59263;48.160;11.752;2023-08-24T06:09:56;96088.72;;;21.68;100.00
71457;BME280;59263;48.160;11.752;2023-08-24T06:12:21;96085.84;;;21.83;100.00
71457;BME280;59263;48.160;11.752;2023-08-24T06:14:46;96072.03;;;21.87;100.00
71457;BME280;59263;48.160;11.752;2023-08-24T06:17:12;96061.25;;;22.02;100.00
71457;BME280;59263;48.160;11.752;2023-08-24T06:19:37;96069.94;;;22.16;100.00
71457;BME280;59263;48.160;11.752;2023-08-24T06:22:02;96071.13;;;22.20;100.00
71457;BME280;59263;48.160;11.752;2023-08-24T06:24:28;96070.31;;;22.26;100.00
71457;BME280;59263;48.160;11.752;2023-08-24T06:26:53;96068.63;;;22.38;100.00
71457;BME280;59263;48.160;11.752;2023-08-24T06:29:18;96058.25;;;22.43;100.00
71457;BME280;59263;48.160;11.752;2023-08-24T06:31:43;96064.63;;;22.61;100.00
71457;BME280;59263;48.160;11.752;2023-08-24T06:34:09;96061.53;;;22.70;100.00
71457;BME280;59263;48.160;11.752;2023-08-24T06:36:34;96054.34;;;22.84;100.00
71457;BME280;59263;48.160;11.752;2023-08-24T06:38:59;96045.94;;;23.01;100.00
71457;BME280;59263;48.160;11.752;2023-08-24T06:41:25;96044.19;;;23.13;100.00
71457;BME280;59263;48.160;11.752;2023-08-24T06:43:50;96037.34;;;23.30;100.00
71457;BME280;59263;48.160;11.752;2023-08-24T06:46:15;96030.53;;;23.41;100.00
71457;BME280;59263;48.160;11.752;2023-08-24T06:48:41;96030.75;;;23.58;100.00
71457;BME280;59263;48.160;11.752;2023-08-24T06:51:10;96022.44;;;23.79;100.00
71457;BME280;59263;48.160;11.752;2023-08-24T06:53:35;96018.25;;;23.90;100.00
71457;BME280;59263;48.160;11.752;2023-08-24T06:56:00;96009.19;;;23.98;100.00
71457;BME280;59263;48.160;11.752;2023-08-24T06:58:26;96007.16;;;24.00;100.00
71457;BME280;59263;48.160;11.752;2023-08-24T07:00:51;96005.44;;;24.05;100.00
71457;BME280;59263;48.160;11.752;2023-08-24T07:03:17;95997.56;;;24.17;100.00
71457;BME280;59263;48.160;11.752;2023-08-24T07:05:43;95991.88;;;24.32;100.00
71457;BME280;59263;48.160;11.752;2023-08-24T07:08:09;95984.13;;;24.49;100.00
71457;BME280;59263;48.160;11.752;2023-08-24T07:10:34;95979.22;;;24.64;100.00
71457;BME280;59263;48.160;11.752;2023-08-24T07:12:59;95968.97;;;24.68;100.00
71457;BME280;59263;48.160;11.752;2023-08-24T07:15:25;95970.75;;;24.85;100.00
71457;BME280;59263;48.160;11.752;2023-08-24T07:17:50;95968.09;;;24.97;100.00
71457;BME280;59263;48.160;11.752;2023-08-24T07:20:15;95965.78;;;25.01;100.00
71457;BME280;59263;48.160;11.752;2023-08-24T07:22:41;95968.09;;;25.09;100.00
71457;BME280;59263;48.160;11.752;2023-08-24T07:25:07;95968.81;;;25.16;100.00
71457;BME280;59263;48.160;11.752;2023-08-24T07:27:34;95968.44;;;25.24;100.00
71457;BME280;59263;48.160;11.752;2023-08-24T07:30:00;95965.59;;;25.26;100.00
71457;BME280;59263;48.160;11.752;2023-08-24T07:32:28;95964.09;;;25.30;100.00
71457;BME280;59263;48.160;11.752;2023-08-24T07:34:53;95965.56;;;25.38;100.00
71457;BME280;59263;48.160;11.752;2023-08-24T07:37:18;95961.03;;;25.62;100.00
71457;BME280;59263;48.160;11.752;2023-08-24T07:39:44;95960.97;;;25.73;100.00
71457;BME280;59263;48.160;11.752;2023-08-24T07:42:09;95951.28;;;25.91;100.00
71457;BME280;59263;48.160;11.752;2023-08-24T07:44:35;95950.81;;;25.94;100.00
71457;BME280;59263;48.160;11.752;2023-08-24T07:47:01;95931.06;;;26.01;100.00
71457;BME280;59263;48.160;11.752;2023-08-24T07:49:27;95944.06;;;26.31;100.00
71457;BME280;59263;48.160;11.752;2023-08-24T07:51:52;95951.16;;;26.43;100.00
71457;BME280;59263;48.160;11.752;2023-08-24T07:54:18;95939.56;;;26.32;100.00
71457;BME280;59263;48.160;11.752;2023-08-24T07:56:43;95934.38;;;26.54;100.00
71457;BME280;59263;48.160;11.752;2023-08-24T07:59:08;95927.06;;;26.61;100.00
71457;BME280;59263;48.160;11.752;2023-08-24T08:01:34;95936.88;;;26.61;100.00
71457;BME280;59263;48.160;11.752;2023-08-24T08:03:59;95934.16;;;26.72;100.00
71457;BME280;59263;48.160;11.752;2023-08-24T08:06:25;95940.09;;;26.79;100.00
71457;BME280;59263;48.160;11.752;2023-08-24T08:08:52;95943.31;;;26.98;100.00
71457;BME280;59263;48.160;11.752;2023-08-24T08:11:17;95931.63;;;27.16;100.00
71457;BME280;59263;48.160;11.752;2023-08-24T08:13:43;95936.59;;;27.30;100.00
71457;BME280;59263;48.160;11.752;2023-08-24T08:16:08;95937.16;;;27.32;100.00
71457;BME280;59263;48.160;11.752;2023-08-24T08:18:35;95929.06;;;27.43;100.00
71457;BME280;59263;48.160;11.752;2023-08-24T08:21:01;95933.66;;;27.48;100.00
71457;BME280;59263;48.160;11.752;2023-08-24T08:23:28;95934.88;;;27.62;100.00
71457;BME280;59263;48.160;11.752;2023-08-24T08:25:54;95935.44;;;27.64;100.00
71457;BME280;59263;48.160;11.752;2023-08-24T08:28:19;95928.97;;;27.77;100.00
71457;BME280;59263;48.160;11.752;2023-08-24T08:30:45;95924.50;;;27.83;100.00
71457;BME280;59263;48.160;11.752;2023-08-24T08:33:10;95914.78;;;27.71;100.00
71457;BME280;59263;48.160;11.752;2023-08-24T08:35:37;95924.63;;;27.93;100.00
71457;BME280;59263;48.160;11.752;2023-08-24T08:38:05;95921.47;;;27.96;100.00
71457;BME280;59263;48.160;11.752;2023-08-24T08:40:31;95930.38;;;27.85;100.00
71457;BME280;59263;48.160;11.752;2023-08-24T08:42:58;95918.75;;;27.91;100.00
71457;BME280;59263;48.160;11.752;2023-08-24T08:45:27;95929.38;;;27.91;100.00
71457;BME280;59263;48.160;11.752;2023-08-24T08:47:56;95924.66;;;27.98;100.00
71457;BME280;59263;48.160;11.752;2023-08-24T08:50:22;95917.84;;;28.07;100.00
71457;BME280;59263;48.160;11.752;2023-08-24T08:52:48;95925.75;;;28.29;100.00
71457;BME280;59263;48.160;11.752;2023-08-24T08:55:14;95918.03;;;28.28;100.00
71457;BME280;59263;48.160;11.752;2023-08-24T08:57:41;95925.38;;;28.42;100.00
71457;BME280;59263;48.160;11.752;2023-08-24T09:00:10;95918.25;;;28.48;100.00
71457;BME280;59263;48.160;11.752;2023-08-24T09:02:38;95931.88;;;28.52;100.00
71457;BME280;59263;48.160;11.752;2023-08-24T09:05:04;95923.94;;;28.62;100.00
71457;BME280;59263;48.160;11.752;2023-08-24T09:07:30;95925.41;;;28.80;100.00
71457;BME280;59263;48.160;11.752;2023-08-24T09:09:56;95916.25;;;28.65;100.00
71457;BME280;59263;48.160;11.752;2023-08-24T09:12:21;95918.47;;;28.79;100.00
71457;BME280;59263;48.160;11.752;2023-08-24T09:14:47;95916.34;;;28.81;100.00
71457;BME280;59263;48.160;11.752;2023-08-24T09:17:20;95912.59;;;28.77;100.00
71457;BME280;59263;48.160;11.752;2023-08-24T09:19:45;95905.69;;;28.81;100.00
71457;BME280;59263;48.160;11.752;2023-08-24T09:22:11;95911.03;;;28.81;100.00
71457;BME280;59263;48.160;11.752;2023-08-24T09:24:36;95912.84;;;29.07;100.00
71457;BME280;59263;48.160;11.752;2023-08-24T09:27:18;95897.75;;;29.28;100.00
71457;BME280;59263;48.160;11.752;2023-08-24T09:29:51;95893.47;;;29.22;100.00
71457;BME280;59263;48.160;11.752;2023-08-24T09:32:43;95878.84;;;29.30;100.00
71457;BME280;59263;48.160;11.752;2023-08-24T09:35:10;95871.19;;;29.54;100.00
71457;BME280;59263;48.160;11.752;2023-08-24T09:37:37;95854.44;;;29.63;100.00
71457;BME280;59263;48.160;11.752;2023-08-24T09:40:06;95837.16;;;30.02;100.00
71457;BME280;59263;48.160;11.752;2023-08-24T09:42:41;95833.69;;;30.01;100.00
71457;BME280;59263;48.160;11.752;2023-08-24T09:45:08;95826.78;;;30.21;100.00
71457;BME280;59263;48.160;11.752;2023-08-24T09:47:36;95834.25;;;30.54;100.00
71457;BME280;59263;48.160;11.752;2023-08-24T09:50:02;95828.94;;;30.34;100.00
71457;BME280;59263;48.160;11.752;2023-08-24T09:52:32;95841.94;;;29.79;100.00
71457;BME280;59263;48.160;11.752;2023-08-24T09:55:03;95841.53;;;29.40;100.00
71457;BME280;59263;48.160;11.752;2023-08-24T09:57:35;95840.97;;;29.28;100.00
71457;BME280;59263;48.160;11.752;2023-08-24T10:00:02;95836.66;;;29.16;100.00
71457;BME280;59263;48.160;11.752;2023-08-24T10:02:40;95833.94;;;29.06;100.00
71457;BME280;59263;48.160;11.752;2023-08-24T10:05:10;95846.69;;;28.99;100.00
71457;BME280;59263;48.160;11.752;2023-08-24T10:07:37;95836.09;;;29.14;100.00
71457;BME280;59263;48.160;11.752;2023-08-24T10:10:04;95834.13;;;29.52;100.00
71457;BME280;59263;48.160;11.752;2023-08-24T10:12:44;95824.34;;;29.78;100.00
71457;BME280;59263;48.160;11.752;2023-08-24T10:15:12;95820.34;;;29.96;100.00
71457;BME280;59263;48.160;11.752;2023-08-24T10:17:39;95820.34;;;29.96;100.00
71457;BME280;59263;48.160;11.752;2023-08-24T10:20:06;95818.25;;;30.34;100.00
71457;BME280;59263;48.160;11.752;2023-08-24T10:22:35;95818.50;;;30.53;100.00
71457;BME280;59263;48.160;11.752;2023-08-24T10:25:01;95810.19;;;30.65;100.00
71457;BME280;59263;48.160;11.752;2023-08-24T10:27:27;95812.88;;;30.59;100.00
71457;BME280;59263;48.160;11.752;2023-08-24T10:29:53;95801.34;;;30.69;100.00
71457;BME280;59263;48.160;11.752;2023-08-24T10:32:22;95797.34;;;30.72;100.00
71457;BME280;59263;48.160;11.752;2023-08-24T10:34:49;95782.38;;;30.81;100.00
71457;BME280;59263;48.160;11.752;2023-08-24T10:37:15;95780.28;;;30.78;100.00
71457;BME280;59263;48.160;11.752;2023-08-24T10:39:44;95782.31;;;30.96;100.00
71457;BME280;59263;48.160;11.752;2023-08-24T10:42:12;95781.22;;;31.07;100.00
71457;BME280;59263;48.160;11.752;2023-08-24T10:44:38;95781.78;;;30.99;100.00
71457;BME280;59263;48.160;11.752;2023-08-24T10:47:23;95778.34;;;30.94;100.00
71457;BME280;59263;48.160;11.752;2023-08-24T10:54:56;95765.66;;;31.15;100.00
71457;BME280;59263;48.160;11.752;2023-08-24T10:57:23;95766.00;;;31.08;100.00
71457;BME280;59263;48.160;11.752;2023-08-24T11:02:25;95744.75;;;31.37;100.00
71457;BME280;59263;48.160;11.752;2023-08-24T11:05:10;95741.59;;;31.20;100.00
71457;BME280;59263;48.160;11.752;2023-08-24T11:08:11;95733.47;;;31.40;100.00
71457;BME280;59263;48.160;11.752;2023-08-24T11:13:17;95734.34;;;31.25;100.00
71457;BME280;59263;48.160;11.752;2023-08-24T11:15:46;95731.38;;;31.32;100.00
71457;BME280;59263;48.160;11.752;2023-08-24T11:18:24;95731.84;;;31.44;100.00
71457;BME280;59263;48.160;11.752;2023-08-24T11:21:06;95728.56;;;31.57;100.00
71457;BME280;59263;48.160;11.752;2023-08-24T11:23:32;95722.66;;;31.61;100.00
71457;BME280;59263;48.160;11.752;2023-08-24T11:25:59;95709.88;;;31.52;100.00
71457;BME280;59263;48.160;11.752;2023-08-24T11:28:27;95709.34;;;31.50;100.00
71457;BME280;59263;48.160;11.752;2023-08-24T11:30:53;95713.28;;;31.63;100.00
71457;BME280;59263;48.160;11.752;2023-08-24T11:33:32;95705.47;;;31.67;100.00
71457;BME280;59263;48.160;11.752;2023-08-24T11:36:00;95705.44;;;31.72;100.00
71457;BME280;59263;48.160;11.752;2023-08-24T11:38:38;95689.22;;;31.92;100.00
71457;BME280;59263;48.160;11.752;2023-08-24T11:41:14;95693.91;;;32.05;100.00
71457;BME280;59263;48.160;11.752;2023-08-24T11:43:40;95692.38;;;31.99;100.00
71457;BME280;59263;48.160;11.752;2023-08-24T11:46:05;95681.38;;;32.01;100.00
71457;BME280;59263;48.160;11.752;2023-08-24T11:48:31;95677.38;;;31.98;100.00
71457;BME280;59263;48.160;11.752;2023-08-24T11:51:00;95668.53;;;32.27;100.00
71457;BME280;59263;48.160;11.752;2023-08-24T11:53:25;95664.66;;;32.38;94.16
71457;BME280;59263;48.160;11.752;2023-08-24T11:55:54;95665.91;;;32.22;98.87
71457;BME280;59263;48.160;11.752;2023-08-24T11:58:20;95675.34;;;32.43;100.00
71457;BME280;59263;48.160;11.752;2023-08-24T12:00:46;95660.19;;;32.76;99.43
71457;BME280;59263;48.160;11.752;2023-08-24T12:03:12;95670.13;;;32.76;97.75
71457;BME280;59263;48.160;11.752;2023-08-24T12:05:38;95666.69;;;32.94;96.14
71457;BME280;59263;48.160;11.752;2023-08-24T12:08:03;95669.91;;;32.72;83.87
71457;BME280;59263;48.160;11.752;2023-08-24T12:10:29;95670.38;;;32.56;91.57
71457;BME280;59263;48.160;11.752;2023-08-24T12:13:05;95666.47;;;32.67;90.85
71457;BME280;59263;48.160;11.752;2023-08-24T12:15:34;95667.81;;;32.45;93.24
71457;BME280;59263;48.160;11.752;2023-08-24T12:18:07;95665.34;;;32.25;92.69
71457;BME280;59263;48.160;11.752;2023-08-24T12:20:32;95663.03;;;32.37;78.43
71457;BME280;59263;48.160;11.752;2023-08-24T12:22:58;95655.00;;;32.42;72.83
71457;BME280;59263;48.160;11.752;2023-08-24T12:25:25;95649.63;;;32.42;83.85
71457;BME280;59263;48.160;11.752;2023-08-24T12:28:08;95653.50;;;32.31;88.57
71457;BME280;59263;48.160;11.752;2023-08-24T12:30:50;95637.41;;;32.31;77.77
71457;BME280;59263;48.160;11.752;2023-08-24T12:33:23;95635.53;;;32.32;72.69
71457;BME280;59263;48.160;11.752;2023-08-24T12:35:49;95640.59;;;32.33;83.17
71457;BME280;59263;48.160;11.752;2023-08-24T12:38:14;95629.31;;;32.36;90.41
71457;BME280;59263;48.160;11.752;2023-08-24T12:40:40;95633.72;;;32.27;79.29
71457;BME280;59263;48.160;11.752;2023-08-24T12:43:05;95627.44;;;32.37;78.72
71457;BME280;59263;48.160;11.752;2023-08-24T12:45:31;95620.78;;;32.58;86.78
71457;BME280;59263;48.160;11.752;2023-08-24T12:47:56;95608.69;;;32.61;84.32
71457;BME280;59263;48.160;11.752;2023-08-24T12:50:22;95617.22;;;32.63;87.07
71457;BME280;59263;48.160;11.752;2023-08-24T12:52:47;95613.59;;;32.53;81.78
71457;BME280;59263;48.160;11.752;2023-08-24T12:55:12;95618.03;;;32.39;82.05
71457;BME280;59263;48.160;11.752;2023-08-24T12:57:37;95622.38;;;32.35;84.42
71457;BME280;59263;48.160;11.752;2023-08-24T13:00:03;95622.03;;;32.18;85.56